sensor_id;sensor_type;location;lat;lon;timestamp;temperature;humidity
11152;DHT22;5630;49.342;10.802;2023-07-24T00:02:23;19.10;99.90
11152;DHT22;5630;49.342;10.802;2023-07-24T00:04:49;19.00;99.90
11152;DHT22;5630;49.342;10.802;2023-07-24T00:07:15;19.00;99.90
11152;DHT22;5630;49.342;10.802;2023-07-24T00:09:40;18.80;99.90
11152;DHT22;5630;49.342;10.802;2023-07-24T00:12:06;18.70;99.90
11152;DHT22;5630;49.342;10.802;2023-07-24T00:16:58;18.60;99.90
11152;DHT22;5630;49.342;10.802;2023-07-24T00:19:23;18.50;99.90
11152;DHT22;5630;49.342;10.802;2023-07-24T00:21:49;18.50;99.90
11152;DHT22;5630;49.342;10.802;2023-07-24T00:24:14;18.40;99.90
11152;DHT22;5630;49.342;10.802;2023-07-24T00:26:40;18.30;99.90
11152;DHT22;5630;49.342;10.802;2023-07-24T00:29:05;18.30;99.90
11152;DHT22;5630;49.342;10.802;2023-07-24T00:31:31;18.30;99.90
11152;DHT22;5630;49.342;10.802;2023-07-24T00:33:56;18.20;99.90
11152;DHT22;5630;49.342;10.802;2023-07-24T00:36:25;18.20;99.90
11152;DHT22;5630;49.342;10.802;2023-07-24T00:38:50;18.20;99.90
11152;DHT22;5630;49.342;10.802;2023-07-24T00:41:16;18.10;99.90
11152;DHT22;5630;49.342;10.802;2023-07-24T00:46:08;18.00;99.90
11152;DHT22;5630;49.342;10.802;2023-07-24T00:48:34;17.90;99.90
11152;DHT22;5630;49.342;10.802;2023-07-24T00:51:00;17.90;99.90
11152;DHT22;5630;49.342;10.802;2023-07-24T00:53:26;17.90;99.90
11152;DHT22;5630;49.342;10.802;2023-07-24T00:55:53;17.80;99.90
11152;DHT22;5630;49.342;10.802;2023-07-24T00:58:19;17.80;99.90
11152;DHT22;5630;49.342;10.802;2023-07-24T01:00:45;17.70;99.90
11152;DHT22;5630;49.342;10.802;2023-07-24T01:03:11;17.70;99.90
11152;DHT22;5630;49.342;10.802;2023-07-24T01:05:37;17.70;99.90
11152;DHT22;5630;49.342;10.802;2023-07-24T01:08:04;17.70;99.90
11152;DHT22;5630;49.342;10.802;2023-07-24T01:10:29;17.60;99.90
11152;DHT22;5630;49.342;10.802;2023-07-24T01:13:15;17.60;99.90
11152;DHT22;5630;49.342;10.802;2023-07-24T01:15:59;17.50;99.90
11152;DHT22;5630;49.342;10.802;2023-07-24T01:18:28;17.50;99.90
11152;DHT22;5630;49.342;10.802;2023-07-24T01:20:57;17.40;99.90
11152;DHT22;5630;49.342;10.802;2023-07-24T01:25:58;17.40;99.90
11152;DHT22;5630;49.342;10.802;2023-07-24T01:28:28;17.40;99.90
11152;DHT22;5630;49.342;10.802;2023-07-24T01:30:54;17.30;99.90
11152;DHT22;5630;49.342;10.802;2023-07-24T01:33:20;17.20;99.90
11152;DHT22;5630;49.342;10.802;2023-07-24T01:35:49;17.30;99.90
11152;DHT22;5630;49.342;10.802;2023-07-24T01:38:16;17.30;99.90
11152;DHT22;5630;49.342;10.802;2023-07-24T01:40:42;17.30;99.90
11152;DHT22;5630;49.342;10.802;2023-07-24T01:43:08;17.40;99.90
11152;DHT22;5630;49.342;10.802;2023-07-24T01:45:34;17.30;99.90
11152;DHT22;5630;49.342;10.802;2023-07-24T01:48:01;17.40;99.90
11152;DHT22;5630;49.342;10.802;2023-07-24T01:50:27;17.40;99.90
11152;DHT22;5630;49.342;10.802;2023-07-24T01:52:52;17.40;99.90
11152;DHT22;5630;49.342;10.802;2023-07-24T01:55:18;17.40;99.90
11152;DHT22;5630;49.342;10.802;2023-07-24T01:57:43;17.40;99.90
11152;DHT22;5630;49.342;10.802;2023-07-24T02:00:10;17.40;99.90
11152;DHT22;5630;49.342;10.802;2023-07-24T02:02:35;17.40;99.90
11152;DHT22;5630;49.342;10.802;2023-07-24T02:05:01;17.40;99.90
11152;DHT22;5630;49.342;10.802;2023-07-24T02:07:27;17.40;99.90
11152;DHT22;5630;49.342;10.802;2023-07-24T02:09:52;17.30;99.90
11152;DHT22;5630;49.342;10.802;2023-07-24T02:12:18;17.30;99.90
11152;DHT22;5630;49.342;10.802;2023-07-24T02:14:43;17.30;99.90
11152;DHT22;5630;49.342;10.802;2023-07-24T02:17:09;17.30;99.90
11152;DHT22;5630;49.342;10.802;2023-07-24T02:19:34;17.30;99.90
11152;DHT22;5630;49.342;10.802;2023-07-24T02:22:00;17.30;99.90
11152;DHT22;5630;49.342;10.802;2023-07-24T02:24:25;17.30;99.90
11152;DHT22;5630;49.342;10.802;2023-07-24T02:26:51;17.30;99.90
11152;DHT22;5630;49.342;10.802;2023-07-24T02:29:16;17.30;99.90
11152;DHT22;5630;49.342;10.802;2023-07-24T02:31:42;17.30;99.90
11152;DHT22;5630;49.342;10.802;2023-07-24T02:34:08;17.30;99.90
11152;DHT22;5630;49.342;10.802;2023-07-24T02:36:33;17.30;99.90
11152;DHT22;5630;49.342;10.802;2023-07-24T02:38:59;17.30;99.90
11152;DHT22;5630;49.342;10.802;2023-07-24T02:41:25;17.30;99.90
11152;DHT22;5630;49.342;10.802;2023-07-24T02:43:50;17.30;99.90
11152;DHT22;5630;49.342;10.802;2023-07-24T02:46:16;17.30;99.90
11152;DHT22;5630;49.342;10.802;2023-07-24T02:48:41;17.20;99.90
11152;DHT22;5630;49.342;10.802;2023-07-24T02:51:07;17.20;99.90
11152;DHT22;5630;49.342;10.802;2023-07-24T02:53:32;17.20;99.90
11152;DHT22;5630;49.342;10.802;2023-07-24T02:55:58;17.20;99.90
11152;DHT22;5630;49.342;10.802;2023-07-24T02:58:23;17.20;99.90
11152;DHT22;5630;49.342;10.802;2023-07-24T03:00:49;17.20;99.90
11152;DHT22;5630;49.342;10.802;2023-07-24T03:03:14;17.20;99.90
11152;DHT22;5630;49.342;10.802;2023-07-24T03:05:40;17.20;99.90
11152;DHT22;5630;49.342;10.802;2023-07-24T03:08:05;17.20;99.90
11152;DHT22;5630;49.342;10.802;2023-07-24T03:10:31;17.20;99.90
11152;DHT22;5630;49.342;10.802;2023-07-24T03:12:56;17.20;99.90
11152;DHT22;5630;49.342;10.802;2023-07-24T03:15:22;17.20;99.90
11152;DHT22;5630;49.342;10.802;2023-07-24T03:17:48;17.20;99.90
11152;DHT22;5630;49.342;10.802;2023-07-24T03:20:15;17.20;99.90
11152;DHT22;5630;49.342;10.802;2023-07-24T03:22:42;17.20;99.90
11152;DHT22;5630;49.342;10.802;2023-07-24T03:25:08;17.10;99.90
11152;DHT22;5630;49.342;10.802;2023-07-24T03:27:33;17.10;99.90
11152;DHT22;5630;49.342;10.802;2023-07-24T03:29:59;17.10;99.90
11152;DHT22;5630;49.342;10.802;2023-07-24T03:32:24;17.10;99.90
11152;DHT22;5630;49.342;10.802;2023-07-24T03:34:50;17.10;99.90
11152;DHT22;5630;49.342;10.802;2023-07-24T03:37:15;17.10;99.90
11152;DHT22;5630;49.342;10.802;2023-07-24T03:39:41;17.10;99.90
11152;DHT22;5630;49.342;10.802;2023-07-24T03:42:09;17.10;99.90
11152;DHT22;5630;49.342;10.802;2023-07-24T03:44:35;17.10;99.90
11152;DHT22;5630;49.342;10.802;2023-07-24T03:47:01;17.10;99.90
11152;DHT22;5630;49.342;10.802;2023-07-24T03:49:26;17.00;99.90
11152;DHT22;5630;49.342;10.802;2023-07-24T03:51:52;17.00;99.90
11152;DHT22;5630;49.342;10.802;2023-07-24T03:54:17;16.90;99.90
11152;DHT22;5630;49.342;10.802;2023-07-24T03:56:43;17.00;99.90
11152;DHT22;5630;49.342;10.802;2023-07-24T03:59:08;17.00;99.90
11152;DHT22;5630;49.342;10.802;2023-07-24T04:01:34;17.00;99.90
11152;DHT22;5630;49.342;10.802;2023-07-24T04:03:59;17.00;99.90
11152;DHT22;5630;49.342;10.802;2023-07-24T04:06:25;17.00;99.90
11152;DHT22;5630;49.342;10.802;2023-07-24T04:08:50;17.00;99.90
11152;DHT22;5630;49.342;10.802;2023-07-24T04:11:16;16.90;99.90
11152;DHT22;5630;49.342;10.802;2023-07-24T04:13:41;17.00;99.90
11152;DHT22;5630;49.342;10.802;2023-07-24T04:16:07;17.00;99.90
11152;DHT22;5630;49.342;10.802;2023-07-24T04:18:32;16.90;99.90
11152;DHT22;5630;49.342;10.802;2023-07-24T04:20:58;16.90;99.90
11152;DHT22;5630;49.342;10.802;2023-07-24T04:23:23;17.00;99.90
11152;DHT22;5630;49.342;10.802;2023-07-24T04:25:50;17.00;99.90
11152;DHT22;5630;49.342;10.802;2023-07-24T04:28:15;17.00;99.90
11152;DHT22;5630;49.342;10.802;2023-07-24T04:30:41;17.00;99.90
11152;DHT22;5630;49.342;10.802;2023-07-24T04:33:06;17.00;99.90
11152;DHT22;5630;49.342;10.802;2023-07-24T04:35:32;17.00;99.90
11152;DHT22;5630;49.342;10.802;2023-07-24T04:37:57;17.00;99.90
11152;DHT22;5630;49.342;10.802;2023-07-24T04:40:24;17.00;99.90
11152;DHT22;5630;49.342;10.802;2023-07-24T04:42:49;17.10;99.90
11152;DHT22;5630;49.342;10.802;2023-07-24T04:45:15;17.10;99.90
11152;DHT22;5630;49.342;10.802;2023-07-24T04:47:40;17.10;99.90
11152;DHT22;5630;49.342;10.802;2023-07-24T04:50:06;17.40;99.90
11152;DHT22;5630;49.342;10.802;2023-07-24T04:52:32;17.60;99.90
11152;DHT22;5630;49.342;10.802;2023-07-24T04:54:57;17.90;99.90
11152;DHT22;5630;49.342;10.802;2023-07-24T04:57:23;18.10;99.90
11152;DHT22;5630;49.342;10.802;2023-07-24T04:59:48;18.30;99.90
11152;DHT22;5630;49.342;10.802;2023-07-24T05:02:14;18.40;99.90
11152;DHT22;5630;49.342;10.802;2023-07-24T05:04:39;18.60;99.90
11152;DHT22;5630;49.342;10.802;2023-07-24T05:07:05;18.70;99.90
11152;DHT22;5630;49.342;10.802;2023-07-24T05:09:30;18.80;99.90
11152;DHT22;5630;49.342;10.802;2023-07-24T05:11:56;18.90;99.90
11152;DHT22;5630;49.342;10.802;2023-07-24T05:14:21;19.00;99.90
11152;DHT22;5630;49.342;10.802;2023-07-24T05:16:47;19.00;99.90
11152;DHT22;5630;49.342;10.802;2023-07-24T05:19:12;19.10;99.90
11152;DHT22;5630;49.342;10.802;2023-07-24T05:21:38;19.00;99.90
11152;DHT22;5630;49.342;10.802;2023-07-24T05:24:04;18.90;99.90
11152;DHT22;5630;49.342;10.802;2023-07-24T05:26:29;18.70;99.90
11152;DHT22;5630;49.342;10.802;2023-07-24T05:28:55;18.50;99.90
11152;DHT22;5630;49.342;10.802;2023-07-24T05:31:20;18.40;99.90
11152;DHT22;5630;49.342;10.802;2023-07-24T05:33:46;18.30;99.90
11152;DHT22;5630;49.342;10.802;2023-07-24T05:36:11;18.20;99.90
11152;DHT22;5630;49.342;10.802;2023-07-24T05:38:37;18.20;99.90
11152;DHT22;5630;49.342;10.802;2023-07-24T05:41:03;18.20;99.90
11152;DHT22;5630;49.342;10.802;2023-07-24T05:43:29;18.20;99.90
11152;DHT22;5630;49.342;10.802;2023-07-24T05:45:56;18.20;99.90
11152;DHT22;5630;49.342;10.802;2023-07-24T05:48:22;18.30;99.90
11152;DHT22;5630;49.342;10.802;2023-07-24T05:50:48;18.30;99.90
11152;DHT22;5630;49.342;10.802;2023-07-24T05:53:15;18.30;99.90
11152;DHT22;5630;49.342;10.802;2023-07-24T05:55:41;18.40;99.90
11152;DHT22;5630;49.342;10.802;2023-07-24T05:58:07;18.40;99.90
11152;DHT22;5630;49.342;10.802;2023-07-24T06:00:33;18.50;99.90
11152;DHT22;5630;49.342;10.802;2023-07-24T06:02:59;18.50;99.90
11152;DHT22;5630;49.342;10.802;2023-07-24T06:05:24;18.60;99.90
11152;DHT22;5630;49.342;10.802;2023-07-24T06:07:50;18.60;99.90
11152;DHT22;5630;49.342;10.802;2023-07-24T06:10:15;18.60;99.90
11152;DHT22;5630;49.342;10.802;2023-07-24T06:12:41;18.60;99.90
11152;DHT22;5630;49.342;10.802;2023-07-24T06:15:07;18.60;99.90
11152;DHT22;5630;49.342;10.802;2023-07-24T06:17:32;18.60;99.90
11152;DHT22;5630;49.342;10.802;2023-07-24T06:19:58;18.70;99.90
11152;DHT22;5630;49.342;10.802;2023-07-24T06:22:24;18.70;99.90
11152;DHT22;5630;49.342;10.802;2023-07-24T06:24:49;18.70;99.90
11152;DHT22;5630;49.342;10.802;2023-07-24T06:27:15;18.80;99.90
11152;DHT22;5630;49.342;10.802;2023-07-24T06:29:41;18.90;99.90
11152;DHT22;5630;49.342;10.802;2023-07-24T06:32:07;18.90;99.90
11152;DHT22;5630;49.342;10.802;2023-07-24T06:34:33;18.90;99.90
11152;DHT22;5630;49.342;10.802;2023-07-24T06:36:58;19.00;99.90
11152;DHT22;5630;49.342;10.802;2023-07-24T06:39:24;19.00;99.90
11152;DHT22;5630;49.342;10.802;2023-07-24T06:41:52;19.20;99.90
11152;DHT22;5630;49.342;10.802;2023-07-24T06:44:17;19.30;99.90
11152;DHT22;5630;49.342;10.802;2023-07-24T06:46:43;19.50;99.90
11152;DHT22;5630;49.342;10.802;2023-07-24T06:49:08;19.60;99.90
11152;DHT22;5630;49.342;10.802;2023-07-24T06:51:35;19.80;99.90
11152;DHT22;5630;49.342;10.802;2023-07-24T06:54:01;19.90;99.90
11152;DHT22;5630;49.342;10.802;2023-07-24T06:56:26;20.00;99.90
11152;DHT22;5630;49.342;10.802;2023-07-24T06:58:52;20.10;99.90
11152;DHT22;5630;49.342;10.802;2023-07-24T07:01:17;20.10;99.90
11152;DHT22;5630;49.342;10.802;2023-07-24T07:03:43;20.20;99.90
11152;DHT22;5630;49.342;10.802;2023-07-24T07:06:08;20.30;99.90
11152;DHT22;5630;49.342;10.802;2023-07-24T07:08:36;20.50;99.90
11152;DHT22;5630;49.342;10.802;2023-07-24T07:11:01;20.50;99.90
11152;DHT22;5630;49.342;10.802;2023-07-24T07:13:27;20.60;99.90
11152;DHT22;5630;49.342;10.802;2023-07-24T07:15:53;20.60;99.90
11152;DHT22;5630;49.342;10.802;2023-07-24T07:18:19;20.70;99.90
11152;DHT22;5630;49.342;10.802;2023-07-24T07:20:49;20.70;99.90
11152;DHT22;5630;49.342;10.802;2023-07-24T07:23:15;20.60;99.90
11152;DHT22;5630;49.342;10.802;2023-07-24T07:25:40;20.70;99.90
11152;DHT22;5630;49.342;10.802;2023-07-24T07:28:08;20.60;99.90
11152;DHT22;5630;49.342;10.802;2023-07-24T07:30:34;20.60;99.90
11152;DHT22;5630;49.342;10.802;2023-07-24T07:33:00;20.60;99.90
11152;DHT22;5630;49.342;10.802;2023-07-24T07:35:25;20.60;99.90
11152;DHT22;5630;49.342;10.802;2023-07-24T07:37:51;20.50;99.90
11152;DHT22;5630;49.342;10.802;2023-07-24T07:40:16;20.50;99.90
11152;DHT22;5630;49.342;10.802;2023-07-24T07:42:42;20.50;99.90
11152;DHT22;5630;49.342;10.802;2023-07-24T07:45:08;20.50;99.90
11152;DHT22;5630;49.342;10.802;2023-07-24T07:47:33;20.60;99.90
11152;DHT22;5630;49.342;10.802;2023-07-24T07:49:59;20.60;99.90
11152;DHT22;5630;49.342;10.802;2023-07-24T07:52:24;20.60;99.90
11152;DHT22;5630;49.342;10.802;2023-07-24T07:54:50;20.60;99.90
11152;DHT22;5630;49.342;10.802;2023-07-24T07:57:16;20.50;99.90
11152;DHT22;5630;49.342;10.802;2023-07-24T07:59:41;20.50;99.90
11152;DHT22;5630;49.342;10.802;2023-07-24T08:02:07;20.50;99.90
11152;DHT22;5630;49.342;10.802;2023-07-24T08:04:33;20.40;99.90
11152;DHT22;5630;49.342;10.802;2023-07-24T08:06:59;20.50;99.90
11152;DHT22;5630;49.342;10.802;2023-07-24T08:09:24;20.50;99.90
11152;DHT22;5630;49.342;10.802;2023-07-24T08:11:50;20.50;99.90
11152;DHT22;5630;49.342;10.802;2023-07-24T08:14:17;20.60;99.90
11152;DHT22;5630;49.342;10.802;2023-07-24T08:16:43;20.50;99.90
11152;DHT22;5630;49.342;10.802;2023-07-24T08:19:08;20.60;99.90
11152;DHT22;5630;49.342;10.802;2023-07-24T08:21:34;20.70;99.90
11152;DHT22;5630;49.342;10.802;2023-07-24T08:24:00;20.70;99.90
11152;DHT22;5630;49.342;10.802;2023-07-24T08:26:27;20.70;99.90
11152;DHT22;5630;49.342;10.802;2023-07-24T08:28:53;20.80;99.90
11152;DHT22;5630;49.342;10.802;2023-07-24T08:31:19;20.80;99.90
11152;DHT22;5630;49.342;10.802;2023-07-24T08:33:44;20.80;99.90
11152;DHT22;5630;49.342;10.802;2023-07-24T08:36:10;20.80;99.90
11152;DHT22;5630;49.342;10.802;2023-07-24T08:38:38;20.90;99.90
11152;DHT22;5630;49.342;10.802;2023-07-24T08:41:11;20.90;99.90
11152;DHT22;5630;49.342;10.802;2023-07-24T08:43:39;21.00;99.90
11152;DHT22;5630;49.342;10.802;2023-07-24T08:46:05;21.00;99.90
11152;DHT22;5630;49.342;10.802;2023-07-24T08:48:36;21.00;99.90
11152;DHT22;5630;49.342;10.802;2023-07-24T08:51:03;21.10;99.90
11152;DHT22;5630;49.342;10.802;2023-07-24T08:53:29;21.10;99.90
11152;DHT22;5630;49.342;10.802;2023-07-24T08:55:59;21.10;99.90
11152;DHT22;5630;49.342;10.802;2023-07-24T08:58:25;21.20;99.90
11152;DHT22;5630;49.342;10.802;2023-07-24T09:00:50;21.20;99.90
11152;DHT22;5630;49.342;10.802;2023-07-24T09:03:18;21.30;99.90
11152;DHT22;5630;49.342;10.802;2023-07-24T09:05:44;21.30;99.90
11152;DHT22;5630;49.342;10.802;2023-07-24T09:08:10;21.40;99.90
11152;DHT22;5630;49.342;10.802;2023-07-24T09:10:35;21.60;99.90
11152;DHT22;5630;49.342;10.802;2023-07-24T09:13:01;21.80;99.90
11152;DHT22;5630;49.342;10.802;2023-07-24T09:15:38;22.00;99.90
11152;DHT22;5630;49.342;10.802;2023-07-24T09:18:04;22.40;99.90
11152;DHT22;5630;49.342;10.802;2023-07-24T09:20:38;22.60;99.90
11152;DHT22;5630;49.342;10.802;2023-07-24T09:23:04;22.90;99.90
11152;DHT22;5630;49.342;10.802;2023-07-24T09:25:30;23.10;99.90
11152;DHT22;5630;49.342;10.802;2023-07-24T09:27:58;23.30;99.90
11152;DHT22;5630;49.342;10.802;2023-07-24T09:30:23;23.60;99.90
11152;DHT22;5630;49.342;10.802;2023-07-24T09:32:53;23.90;99.90
11152;DHT22;5630;49.342;10.802;2023-07-24T09:35:20;24.40;99.90
11152;DHT22;5630;49.342;10.802;2023-07-24T09:37:47;24.60;99.90
11152;DHT22;5630;49.342;10.802;2023-07-24T09:40:15;24.70;99.90
11152;DHT22;5630;49.342;10.802;2023-07-24T09:42:40;24.70;99.90
11152;DHT22;5630;49.342;10.802;2023-07-24T09:45:07;24.70;99.90
11152;DHT22;5630;49.342;10.802;2023-07-24T09:47:35;24.70;99.90
11152;DHT22;5630;49.342;10.802;2023-07-24T09:50:04;24.70;99.90
11152;DHT22;5630;49.342;10.802;2023-07-24T09:52:30;24.60;99.90
11152;DHT22;5630;49.342;10.802;2023-07-24T09:55:04;24.30;99.90
11152;DHT22;5630;49.342;10.802;2023-07-24T09:57:31;24.20;99.90
11152;DHT22;5630;49.342;10.802;2023-07-24T09:59:57;24.00;99.90
11152;DHT22;5630;49.342;10.802;2023-07-24T10:02:24;23.90;99.90
11152;DHT22;5630;49.342;10.802;2023-07-24T10:04:50;23.70;99.90
11152;DHT22;5630;49.342;10.802;2023-07-24T10:07:15;23.70;99.90
11152;DHT22;5630;49.342;10.802;2023-07-24T10:09:43;23.60;99.90
11152;DHT22;5630;49.342;10.802;2023-07-24T10:12:09;23.50;99.90
11152;DHT22;5630;49.342;10.802;2023-07-24T10:14:36;23.40;99.90
11152;DHT22;5630;49.342;10.802;2023-07-24T10:17:02;23.40;99.90
11152;DHT22;5630;49.342;10.802;2023-07-24T10:19:43;23.30;99.90
11152;DHT22;5630;49.342;10.802;2023-07-24T10:22:17;23.30;99.90
11152;DHT22;5630;49.342;10.802;2023-07-24T10:24:44;23.30;99.90
11152;DHT22;5630;49.342;10.802;2023-07-24T10:27:11;23.30;99.90
11152;DHT22;5630;49.342;10.802;2023-07-24T10:29:37;23.20;99.90
11152;DHT22;5630;49.342;10.802;2023-07-24T10:32:03;23.20;99.90
11152;DHT22;5630;49.342;10.802;2023-07-24T10:34:39;23.10;99.90
11152;DHT22;5630;49.342;10.802;2023-07-24T10:37:08;23.00;99.90
11152;DHT22;5630;49.342;10.802;2023-07-24T10:39:39;22.80;99.90
11152;DHT22;5630;49.342;10.802;2023-07-24T10:42:09;22.80;99.90
11152;DHT22;5630;49.342;10.802;2023-07-24T10:44:35;22.70;99.90
11152;DHT22;5630;49.342;10.802;2023-07-24T10:47:01;22.60;99.90
11152;DHT22;5630;49.342;10.802;2023-07-24T10:49:27;22.60;99.90
11152;DHT22;5630;49.342;10.802;2023-07-24T10:51:59;22.60;99.90
11152;DHT22;5630;49.342;10.802;2023-07-24T10:54:25;22.50;99.90
11152;DHT22;5630;49.342;10.802;2023-07-24T10:56:58;22.50;99.90
11152;DHT22;5630;49.342;10.802;2023-07-24T10:59:38;22.50;99.90
11152;DHT22;5630;49.342;10.802;2023-07-24T11:02:04;22.40;99.90
11152;DHT22;5630;49.342;10.802;2023-07-24T11:04:30;22.40;99.90
11152;DHT22;5630;49.342;10.802;2023-07-24T11:06:55;22.40;99.90
11152;DHT22;5630;49.342;10.802;2023-07-24T11:09:23;22.30;99.90
11152;DHT22;5630;49.342;10.802;2023-07-24T11:11:58;22.30;99.90
11152;DHT22;5630;49.342;10.802;2023-07-24T11:14:24;22.30;99.90
11152;DHT22;5630;49.342;10.802;2023-07-24T11:16:50;22.30;99.90
11152;DHT22;5630;49.342;10.802;2023-07-24T11:19:24;22.20;99.90
11152;DHT22;5630;49.342;10.802;2023-07-24T11:21:49;22.20;99.90
11152;DHT22;5630;49.342;10.802;2023-07-24T11:24:17;22.20;99.90
11152;DHT22;5630;49.342;10.802;2023-07-24T11:26:43;22.20;99.90
11152;DHT22;5630;49.342;10.802;2023-07-24T11:29:12;22.20;99.90
11152;DHT22;5630;49.342;10.802;2023-07-24T11:31:38;22.10;99.90
11152;DHT22;5630;49.342;10.802;2023-07-24T11:34:06;22.00;99.90
11152;DHT22;5630;49.342;10.802;2023-07-24T11:36:32;22.00;99.90
11152;DHT22;5630;49.342;10.802;2023-07-24T11:38:58;22.00;99.90
11152;DHT22;5630;49.342;10.802;2023-07-24T11:41:26;22.00;99.90
11152;DHT22;5630;49.342;10.802;2023-07-24T11:43:52;22.00;99.90
11152;DHT22;5630;49.342;10.802;2023-07-24T11:46:25;22.00;99.90
11152;DHT22;5630;49.342;10.802;2023-07-24T11:48:51;21.90;99.90
11152;DHT22;5630;49.342;10.802;2023-07-24T11:51:19;21.90;99.90
11152;DHT22;5630;49.342;10.802;2023-07-24T11:53:44;22.00;99.90
11152;DHT22;5630;49.342;10.802;2023-07-24T11:56:14;21.90;99.90
11152;DHT22;5630;49.342;10.802;2023-07-24T11:58:40;21.90;99.90
11152;DHT22;5630;49.342;10.802;2023-07-24T12:01:06;21.90;99.90
11152;DHT22;5630;49.342;10.802;2023-07-24T12:03:31;21.90;99.90
11152;DHT22;5630;49.342;10.802;2023-07-24T12:05:57;21.90;99.90
11152;DHT22;5630;49.342;10.802;2023-07-24T12:08:31;21.80;99.90
11152;DHT22;5630;49.342;10.802;2023-07-24T12:10:58;21.80;99.90
11152;DHT22;5630;49.342;10.802;2023-07-24T12:13:24;21.70;99.90
11152;DHT22;5630;49.342;10.802;2023-07-24T12:15:49;21.70;99.90
11152;DHT22;5630;49.342;10.802;2023-07-24T12:18:15;21.70;99.90
11152;DHT22;5630;49.342;10.802;2023-07-24T12:20:42;21.70;99.90
11152;DHT22;5630;49.342;10.802;2023-07-24T12:23:08;21.80;99.90
11152;DHT22;5630;49.342;10.802;2023-07-24T12:25:33;21.80;99.90
11152;DHT22;5630;49.342;10.802;2023-07-24T12:27:59;21.80;99.90
11152;DHT22;5630;49.342;10.802;2023-07-24T12:30:24;21.80;99.90
11152;DHT22;5630;49.342;10.802;2023-07-24T12:32:50;21.80;99.90
11152;DHT22;5630;49.342;10.802;2023-07-24T12:35:16;21.70;99.90
11152;DHT22;5630;49.342;10.802;2023-07-24T12:37:45;21.70;99.90
11152;DHT22;5630;49.342;10.802;2023-07-24T12:40:11;21.70;99.90
11152;DHT22;5630;49.342;10.802;2023-07-24T12:42:37;21.70;99.90
11152;DHT22;5630;49.342;10.802;2023-07-24T12:45:03;21.60;99.90
11152;DHT22;5630;49.342;10.802;2023-07-24T12:47:30;21.70;99.90
11152;DHT22;5630;49.342;10.802;2023-07-24T12:49:56;21.60;99.90
11152;DHT22;5630;49.342;10.802;2023-07-24T12:52:23;21.60;99.90
11152;DHT22;5630;49.342;10.802;2023-07-24T12:54:49;21.60;99.90
11152;DHT22;5630;49.342;10.802;2023-07-24T12:57:15;21.70;99.90
11152;DHT22;5630;49.342;10.802;2023-07-24T12:59:40;21.70;99.90
11152;DHT22;5630;49.342;10.802;2023-07-24T13:02:06;21.70;99.90
11152;DHT22;5630;49.342;10.802;2023-07-24T13:04:31;21.80;99.90
11152;DHT22;5630;49.342;10.802;2023-07-24T13:06:57;21.90;99.90
11152;DHT22;5630;49.342;10.802;2023-07-24T13:09:24;21.90;99.90
11152;DHT22;5630;49.342;10.802;2023-07-24T13:11:50;22.10;99.90
11152;DHT22;5630;49.342;10.802;2023-07-24T13:14:17;22.30;99.90
11152;DHT22;5630;49.342;10.802;2023-07-24T13:16:43;22.60;99.90
11152;DHT22;5630;49.342;10.802;2023-07-24T13:19:09;22.80;99.90
11152;DHT22;5630;49.342;10.802;2023-07-24T13:21:34;22.80;99.90
11152;DHT22;5630;49.342;10.802;2023-07-24T13:24:00;22.70;99.90
11152;DHT22;5630;49.342;10.802;2023-07-24T13:26:25;22.70;99.90
11152;DHT22;5630;49.342;10.802;2023-07-24T13:28:51;22.70;99.90
11152;DHT22;5630;49.342;10.802;2023-07-24T13:31:20;22.70;99.90
11152;DHT22;5630;49.342;10.802;2023-07-24T13:33:47;22.70;99.90
11152;DHT22;5630;49.342;10.802;2023-07-24T13:36:13;22.70;99.90
11152;DHT22;5630;49.342;10.802;2023-07-24T13:38:39;22.70;99.90
11152;DHT22;5630;49.342;10.802;2023-07-24T13:41:05;22.60;99.90
11152;DHT22;5630;49.342;10.802;2023-07-24T13:43:32;22.70;99.90
11152;DHT22;5630;49.342;10.802;2023-07-24T13:45:58;22.60;99.90
11152;DHT22;5630;49.342;10.802;2023-07-24T13:48:24;22.50;99.90
11152;DHT22;5630;49.342;10.802;2023-07-24T13:50:50;22.50;99.90
11152;DHT22;5630;49.342;10.802;2023-07-24T13:53:16;22.50;99.90
11152;DHT22;5630;49.342;10.802;2023-07-24T13:55:41;22.50;99.90
11152;DHT22;5630;49.342;10.802;2023-07-24T13:58:07;22.20;99.90
11152;DHT22;5630;49.342;10.802;2023-07-24T14:00:32;22.00;99.90
11152;DHT22;5630;49.342;10.802;2023-07-24T14:02:58;21.90;99.90
11152;DHT22;5630;49.342;10.802;2023-07-24T14:05:24;22.00;99.90
11152;DHT22;5630;49.342;10.802;2023-07-24T14:07:49;22.00;99.90
11152;DHT22;5630;49.342;10.802;2023-07-24T14:10:15;22.00;99.90
11152;DHT22;5630;49.342;10.802;2023-07-24T14:12:40;22.00;99.90
11152;DHT22;5630;49.342;10.802;2023-07-24T14:15:06;22.10;99.90
11152;DHT22;5630;49.342;10.802;2023-07-24T14:17:32;22.20;99.90
11152;DHT22;5630;49.342;10.802;2023-07-24T14:19:57;22.30;99.90
11152;DHT22;5630;49.342;10.802;2023-07-24T14:22:23;22.30;99.90
11152;DHT22;5630;49.342;10.802;2023-07-24T14:24:48;22.20;99.90
11152;DHT22;5630;49.342;10.802;2023-07-24T14:27:14;22.10;99.90
11152;DHT22;5630;49.342;10.802;2023-07-24T14:29:40;22.00;99.90
11152;DHT22;5630;49.342;10.802;2023-07-24T14:32:06;22.10;99.90
11152;DHT22;5630;49.342;10.802;2023-07-24T14:34:32;22.20;99.90
11152;DHT22;5630;49.342;10.802;2023-07-24T14:36:57;22.20;99.90
11152;DHT22;5630;49.342;10.802;2023-07-24T14:39:23;22.10;99.90
11152;DHT22;5630;49.342;10.802;2023-07-24T14:41:48;22.10;99.90
11152;DHT22;5630;49.342;10.802;2023-07-24T14:44:14;22.10;99.90
11152;DHT22;5630;49.342;10.802;2023-07-24T14:46:39;22.10;99.90
11152;DHT22;5630;49.342;10.802;2023-07-24T14:49:05;22.00;99.90
11152;DHT22;5630;49.342;10.802;2023-07-24T14:51:31;21.80;99.90
11152;DHT22;5630;49.342;10.802;2023-07-24T14:53:56;21.90;99.90
11152;DHT22;5630;49.342;10.802;2023-07-24T14:56:22;22.00;99.90
11152;DHT22;5630;49.342;10.802;2023-07-24T14:58:48;22.00;99.90
11152;DHT22;5630;49.342;10.802;2023-07-24T15:01:13;22.00;99.90
11152;DHT22;5630;49.342;10.802;2023-07-24T15:03:39;22.00;99.90
11152;DHT22;5630;49.342;10.802;2023-07-24T15:06:04;22.00;99.90
11152;DHT22;5630;49.342;10.802;2023-07-24T15:08:32;22.00;99.90
11152;DHT22;5630;49.342;10.802;2023-07-24T15:10:58;22.00;99.90
11152;DHT22;5630;49.342;10.802;2023-07-24T15:13:23;22.00;99.90
11152;DHT22;5630;49.342;10.802;2023-07-24T15:15:49;21.90;99.90
11152;DHT22;5630;49.342;10.802;2023-07-24T15:18:15;21.90;99.90
11152;DHT22;5630;49.342;10.802;2023-07-24T15:20:40;22.00;99.90
11152;DHT22;5630;49.342;10.802;2023-07-24T15:23:06;21.90;99.90
11152;DHT22;5630;49.342;10.802;2023-07-24T15:25:31;21.90;99.90
11152;DHT22;5630;49.342;10.802;2023-07-24T15:27:57;21.90;99.90
11152;DHT22;5630;49.342;10.802;2023-07-24T15:30:22;21.90;99.90
11152;DHT22;5630;49.342;10.802;2023-07-24T15:32:48;21.80;99.90